DAL2 EGLL-KJFK
Flight info
| Callsign | DAL2 |
|---|---|
| Flight time | N/A |
| Altitude | 38000 |
| Route | CPT L9 BIBPE/N0486F380 DCT BUCGO L9 TIGWE DCT FELCA DCT NICXI DCT BAKUR DCT DOGAL/M085F390 NATC ELSIR/N0485F400 N406A TOPPS DCT ENE PARCH3 |
| Aircraft | A359/H-SDE2E3GHIJ3J4J5LM1ORWXY/LB1D1 |
Departure
| Time | 2026-05-07 15:58 |
|---|---|
| Airport | London Heathrow Airport (EGLL) |
Arrival
| Time | N/A |
|---|---|
| Airport | John F. Kennedy International Airport (KJFK) |
| Time | Latitude | Longitude | Altitude | Speed | Heading |
|---|---|---|---|---|---|
| 2026-05-07 14:40 | 51.46984 | -0.46291 | 93 ft | 0 kts | 236° |
| 2026-05-07 15:34 | 51.46989 | -0.46279 | 93 ft | 4 kts | 230° |
| 2026-05-07 15:34 | 51.47005 | -0.46254 | 94 ft | 2 kts | 219° |
| 2026-05-07 15:34 | 51.47020 | -0.46231 | 96 ft | 4 kts | 247° |
| 2026-05-07 15:34 | 51.47024 | -0.46204 | 95 ft | 4 kts | 292° |
| 2026-05-07 15:35 | 51.47013 | -0.46179 | 95 ft | 3 kts | 326° |
| 2026-05-07 15:35 | 51.46991 | -0.46155 | 94 ft | 2 kts | 326° |
| 2026-05-07 15:35 | 51.46989 | -0.46153 | 94 ft | 4 kts | 326° |
| 2026-05-07 15:42 | 51.46991 | -0.46154 | 93 ft | 2 kts | 326° |
| 2026-05-07 15:43 | 51.47032 | -0.46200 | 96 ft | 13 kts | 326° |
| 2026-05-07 15:43 | 51.47130 | -0.46306 | 97 ft | 19 kts | 326° |
| 2026-05-07 15:43 | 51.47222 | -0.46413 | 97 ft | 12 kts | 314° |
| 2026-05-07 15:43 | 51.47240 | -0.46543 | 93 ft | 11 kts | 269° |
| 2026-05-07 15:44 | 51.47238 | -0.46664 | 93 ft | 7 kts | 269° |
| 2026-05-07 15:44 | 51.47238 | -0.46678 | 93 ft | 0 kts | 269° |
| 2026-05-07 15:44 | 51.47238 | -0.46723 | 93 ft | 9 kts | 269° |
| 2026-05-07 15:45 | 51.47225 | -0.46840 | 95 ft | 9 kts | 234° |
| 2026-05-07 15:45 | 51.47162 | -0.46866 | 95 ft | 11 kts | 183° |
| 2026-05-07 15:45 | 51.47064 | -0.46867 | 93 ft | 12 kts | 180° |
| 2026-05-07 15:45 | 51.46980 | -0.46866 | 93 ft | 8 kts | 179° |
| 2026-05-07 15:46 | 51.46861 | -0.46864 | 93 ft | 0 kts | 179° |
| 2026-05-07 15:46 | 51.46857 | -0.46864 | 93 ft | 4 kts | 179° |
| 2026-05-07 15:46 | 51.46800 | -0.46864 | 96 ft | 10 kts | 181° |
| 2026-05-07 15:47 | 51.46748 | -0.46944 | 96 ft | 13 kts | 264° |
| 2026-05-07 15:47 | 51.46747 | -0.47118 | 96 ft | 18 kts | 269° |
| 2026-05-07 15:47 | 51.46746 | -0.47351 | 96 ft | 23 kts | 269° |
| 2026-05-07 15:47 | 51.46745 | -0.47626 | 93 ft | 25 kts | 270° |
| 2026-05-07 15:48 | 51.46744 | -0.47872 | 93 ft | 21 kts | 269° |
| 2026-05-07 15:48 | 51.46743 | -0.48072 | 93 ft | 9 kts | 269° |
| 2026-05-07 15:48 | 51.46742 | -0.48191 | 93 ft | 12 kts | 270° |
| 2026-05-07 15:48 | 51.46742 | -0.48317 | 93 ft | 12 kts | 270° |
| 2026-05-07 15:49 | 51.46742 | -0.48476 | 93 ft | 14 kts | 270° |
| 2026-05-07 15:49 | 51.46742 | -0.48576 | 93 ft | 7 kts | 270° |
| 2026-05-07 15:49 | 51.46741 | -0.48663 | 93 ft | 7 kts | 269° |
| 2026-05-07 15:49 | 51.46726 | -0.48732 | 97 ft | 7 kts | 224° |
| 2026-05-07 15:50 | 51.46688 | -0.48747 | 94 ft | 5 kts | 185° |
| 2026-05-07 15:50 | 51.46684 | -0.48748 | 94 ft | 0 kts | 184° |
| 2026-05-07 15:50 | 51.46683 | -0.48748 | 94 ft | 2 kts | 184° |
| 2026-05-07 15:50 | 51.46641 | -0.48756 | 96 ft | 7 kts | 189° |
| 2026-05-07 15:51 | 51.46611 | -0.48767 | 96 ft | 0 kts | 195° |
| 2026-05-07 15:54 | 51.46609 | -0.48768 | 93 ft | 3 kts | 195° |
| 2026-05-07 15:54 | 51.46558 | -0.48787 | 95 ft | 10 kts | 187° |
| 2026-05-07 15:55 | 51.46502 | -0.48761 | 95 ft | 7 kts | 144° |
| 2026-05-07 15:55 | 51.46482 | -0.48705 | 98 ft | 6 kts | 103° |
| 2026-05-07 15:55 | 51.46478 | -0.48608 | 95 ft | 7 kts | 90° |
| 2026-05-07 15:55 | 51.46478 | -0.48581 | 94 ft | 0 kts | 90° |
| 2026-05-07 15:58 | 51.46479 | -0.48411 | 95 ft | 46 kts | 89° |
| 2026-05-07 15:58 | 51.46481 | -0.47468 | 92 ft | 120 kts | 89° |
| 2026-05-07 15:58 | 51.46484 | -0.45820 | 252 ft | 166 kts | 90° |
| 2026-05-07 15:58 | 51.46460 | -0.43955 | 1116 ft | 167 kts | 92° |
| 2026-05-07 15:59 | 51.46422 | -0.42100 | 1997 ft | 165 kts | 93° |
| 2026-05-07 15:59 | 51.46367 | -0.40265 | 2583 ft | 169 kts | 93° |
| 2026-05-07 15:59 | 51.46332 | -0.38352 | 3141 ft | 173 kts | 92° |
| 2026-05-07 15:59 | 51.46293 | -0.36395 | 3669 ft | 178 kts | 95° |
| 2026-05-07 16:00 | 51.45684 | -0.34701 | 4179 ft | 180 kts | 143° |
| 2026-05-07 16:00 | 51.44508 | -0.34160 | 4649 ft | 187 kts | 186° |
| 2026-05-07 16:00 | 51.43317 | -0.35075 | 5127 ft | 195 kts | 223° |
| 2026-05-07 16:00 | 51.42686 | -0.36980 | 5613 ft | 203 kts | 258° |
| 2026-05-07 16:01 | 51.42579 | -0.39269 | 6166 ft | 209 kts | 269° |
| 2026-05-07 16:01 | 51.42503 | -0.41621 | 6706 ft | 215 kts | 264° |
| 2026-05-07 16:01 | 51.42348 | -0.44029 | 7218 ft | 220 kts | 262° |
| 2026-05-07 16:01 | 51.42123 | -0.46536 | 7630 ft | 236 kts | 259° |
| 2026-05-07 16:02 | 51.41828 | -0.49225 | 8073 ft | 252 kts | 259° |
| 2026-05-07 16:02 | 51.41535 | -0.52054 | 8631 ft | 263 kts | 260° |
| 2026-05-07 16:02 | 51.41572 | -0.55025 | 9229 ft | 273 kts | 277° |
| 2026-05-07 16:02 | 51.41861 | -0.58080 | 9898 ft | 280 kts | 276° |
| 2026-05-07 16:03 | 51.42156 | -0.61211 | 10436 ft | 290 kts | 277° |
| 2026-05-07 16:03 | 51.42487 | -0.64482 | 10845 ft | 304 kts | 277° |
| 2026-05-07 16:03 | 51.42855 | -0.67896 | 11235 ft | 318 kts | 278° |
| 2026-05-07 16:03 | 51.43250 | -0.71447 | 11600 ft | 331 kts | 278° |
| 2026-05-07 16:04 | 51.43665 | -0.75129 | 12081 ft | 339 kts | 278° |
| 2026-05-07 16:04 | 51.44111 | -0.78859 | 12664 ft | 344 kts | 279° |
| 2026-05-07 16:04 | 51.44597 | -0.82631 | 13261 ft | 347 kts | 279° |
| 2026-05-07 16:04 | 51.45089 | -0.86447 | 13871 ft | 351 kts | 279° |
| 2026-05-07 16:05 | 51.45576 | -0.90285 | 14436 ft | 353 kts | 279° |
| 2026-05-07 16:05 | 51.46028 | -0.94176 | 15024 ft | 355 kts | 278° |
| 2026-05-07 16:05 | 51.46463 | -0.98075 | 15631 ft | 356 kts | 278° |
| 2026-05-07 16:05 | 51.46903 | -1.01988 | 16225 ft | 358 kts | 278° |
| 2026-05-07 16:06 | 51.47353 | -1.05929 | 16815 ft | 360 kts | 278° |
| 2026-05-07 16:06 | 51.47800 | -1.09890 | 17409 ft | 362 kts | 278° |
| 2026-05-07 16:06 | 51.48251 | -1.13880 | 18006 ft | 364 kts | 278° |
| 2026-05-07 16:06 | 51.48730 | -1.17879 | 18540 ft | 367 kts | 281° |
| 2026-05-07 16:07 | 51.49614 | -1.21733 | 19004 ft | 373 kts | 296° |
| 2026-05-07 16:07 | 51.51147 | -1.25109 | 19497 ft | 377 kts | 309° |
| 2026-05-07 16:07 | 51.52970 | -1.28180 | 19988 ft | 381 kts | 313° |
| 2026-05-07 16:07 | 51.54883 | -1.31068 | 20461 ft | 384 kts | 315° |
| 2026-05-07 16:08 | 51.56871 | -1.33947 | 20951 ft | 386 kts | 316° |
| 2026-05-07 16:08 | 51.58873 | -1.36849 | 21432 ft | 388 kts | 315° |
| 2026-05-07 16:08 | 51.60674 | -1.40072 | 21881 ft | 388 kts | 304° |
| 2026-05-07 16:08 | 51.62158 | -1.43700 | 22338 ft | 389 kts | 299° |
| 2026-05-07 16:09 | 51.63519 | -1.47465 | 22790 ft | 391 kts | 297° |
| 2026-05-07 16:09 | 51.64819 | -1.51320 | 23254 ft | 393 kts | 296° |
| 2026-05-07 16:09 | 51.66094 | -1.55226 | 23686 ft | 395 kts | 295° |
| 2026-05-07 16:09 | 51.67370 | -1.59166 | 24050 ft | 398 kts | 295° |
| 2026-05-07 16:10 | 51.68653 | -1.63117 | 24440 ft | 399 kts | 296° |
| 2026-05-07 16:10 | 51.69815 | -1.67182 | 24812 ft | 400 kts | 288° |
| 2026-05-07 16:10 | 51.70551 | -1.71509 | 25213 ft | 400 kts | 279° |
| 2026-05-07 16:10 | 51.71014 | -1.75944 | 25615 ft | 402 kts | 277° |
| 2026-05-07 16:11 | 51.71381 | -1.80420 | 26033 ft | 404 kts | 275° |
| 2026-05-07 16:11 | 51.71699 | -1.84927 | 26470 ft | 406 kts | 275° |
| 2026-05-07 16:11 | 51.72001 | -1.89458 | 26919 ft | 408 kts | 275° |
| 2026-05-07 16:11 | 51.72303 | -1.94028 | 27377 ft | 410 kts | 275° |
| 2026-05-07 16:12 | 51.72610 | -1.98610 | 27855 ft | 413 kts | 275° |
| 2026-05-07 16:12 | 51.72925 | -2.03230 | 28343 ft | 416 kts | 275° |
| 2026-05-07 16:12 | 51.73246 | -2.07881 | 28824 ft | 418 kts | 275° |
| 2026-05-07 16:12 | 51.73570 | -2.12551 | 29309 ft | 421 kts | 275° |
| 2026-05-07 16:13 | 51.73897 | -2.17255 | 29804 ft | 423 kts | 275° |
| 2026-05-07 16:13 | 51.74224 | -2.21996 | 30245 ft | 426 kts | 275° |
| 2026-05-07 16:13 | 51.74552 | -2.26772 | 30632 ft | 430 kts | 275° |
| 2026-05-07 16:13 | 51.74880 | -2.31576 | 31017 ft | 433 kts | 275° |
| 2026-05-07 16:14 | 51.75204 | -2.36354 | 31408 ft | 436 kts | 275° |
| 2026-05-07 16:14 | 51.75532 | -2.41226 | 31798 ft | 439 kts | 275° |
| 2026-05-07 16:14 | 51.75860 | -2.46141 | 32168 ft | 442 kts | 275° |
| 2026-05-07 16:14 | 51.76189 | -2.51090 | 32532 ft | 445 kts | 275° |
| 2026-05-07 16:15 | 51.76517 | -2.56075 | 32921 ft | 447 kts | 275° |
| 2026-05-07 16:15 | 51.76845 | -2.61077 | 33283 ft | 450 kts | 275° |
| 2026-05-07 16:15 | 51.77177 | -2.66112 | 33635 ft | 453 kts | 275° |
| 2026-05-07 16:15 | 51.77507 | -2.71186 | 33996 ft | 455 kts | 275° |
| 2026-05-07 16:16 | 51.77833 | -2.76281 | 34279 ft | 458 kts | 274° |
| 2026-05-07 16:16 | 51.78158 | -2.81419 | 34531 ft | 461 kts | 274° |
| 2026-05-07 16:16 | 51.78483 | -2.86572 | 34866 ft | 462 kts | 274° |
| 2026-05-07 16:16 | 51.78807 | -2.91730 | 35229 ft | 462 kts | 274° |
| 2026-05-07 16:17 | 51.79128 | -2.96888 | 35559 ft | 463 kts | 274° |
| 2026-05-07 16:17 | 51.79449 | -3.02067 | 35910 ft | 463 kts | 274° |
| 2026-05-07 16:17 | 51.79768 | -3.07243 | 36233 ft | 464 kts | 274° |
| 2026-05-07 16:17 | 51.80085 | -3.12434 | 36549 ft | 465 kts | 274° |
| 2026-05-07 16:18 | 51.80400 | -3.17637 | 36863 ft | 466 kts | 274° |
| 2026-05-07 16:18 | 51.80714 | -3.22846 | 37191 ft | 466 kts | 274° |
| 2026-05-07 16:18 | 51.81028 | -3.28069 | 37521 ft | 467 kts | 274° |
| 2026-05-07 16:18 | 51.81338 | -3.33292 | 37829 ft | 468 kts | 274° |
| 2026-05-07 16:19 | 51.81645 | -3.38516 | 38149 ft | 468 kts | 274° |
| 2026-05-07 16:19 | 51.81950 | -3.43765 | 38451 ft | 469 kts | 274° |
| 2026-05-07 16:19 | 51.82253 | -3.49017 | 38728 ft | 470 kts | 274° |
| 2026-05-07 16:19 | 51.82655 | -3.54246 | 38939 ft | 471 kts | 279° |
| 2026-05-07 16:20 | 51.83263 | -3.59455 | 39177 ft | 471 kts | 279° |
| 2026-05-07 16:20 | 51.83903 | -3.64580 | 39413 ft | 471 kts | 280° |
| 2026-05-07 16:20 | 51.84572 | -3.69770 | 39649 ft | 471 kts | 280° |
| 2026-05-07 16:20 | 51.85247 | -3.74958 | 39878 ft | 471 kts | 281° |
| 2026-05-07 16:21 | 51.85924 | -3.80156 | 39998 ft | 474 kts | 281° |
| 2026-05-07 16:21 | 51.87271 | -3.90607 | 40013 ft | 476 kts | 280° |
| 2026-05-07 16:22 | 51.88606 | -4.01103 | 40011 ft | 476 kts | 280° |
| 2026-05-07 16:22 | 51.89927 | -4.11598 | 40006 ft | 475 kts | 280° |
| 2026-05-07 16:23 | 51.91237 | -4.22080 | 40010 ft | 475 kts | 280° |
| 2026-05-07 16:23 | 51.92538 | -4.32573 | 40002 ft | 475 kts | 280° |
| 2026-05-07 16:24 | 51.93829 | -4.43072 | 40009 ft | 475 kts | 280° |
| 2026-05-07 16:24 | 51.95110 | -4.53567 | 39999 ft | 475 kts | 280° |
| 2026-05-07 16:25 | 51.96381 | -4.64065 | 40001 ft | 475 kts | 280° |
| 2026-05-07 16:25 | 51.97644 | -4.74580 | 39997 ft | 475 kts | 280° |
| 2026-05-07 16:26 | 51.98898 | -4.85108 | 40004 ft | 475 kts | 279° |
| 2026-05-07 16:26 | 52.00142 | -4.95629 | 40003 ft | 475 kts | 279° |
| 2026-05-07 16:27 | 52.01840 | -5.05995 | 40004 ft | 477 kts | 291° |
| 2026-05-07 16:27 | 52.04941 | -5.15512 | 40002 ft | 478 kts | 299° |
| 2026-05-07 16:28 | 52.08331 | -5.24732 | 40005 ft | 478 kts | 300° |
| 2026-05-07 16:28 | 52.11774 | -5.33994 | 40003 ft | 478 kts | 300° |
| 2026-05-07 16:29 | 52.15188 | -5.43275 | 39997 ft | 478 kts | 299° |
| 2026-05-07 16:29 | 52.18580 | -5.52583 | 39996 ft | 478 kts | 299° |
| 2026-05-07 16:30 | 52.21962 | -5.61912 | 39993 ft | 478 kts | 299° |
| 2026-05-07 16:30 | 52.24961 | -5.71544 | 39991 ft | 476 kts | 291° |
| 2026-05-07 16:31 | 52.27408 | -5.81578 | 39990 ft | 476 kts | 290° |
| 2026-05-07 16:31 | 52.29765 | -5.91679 | 39988 ft | 476 kts | 290° |
| 2026-05-07 16:32 | 52.32110 | -6.01794 | 39986 ft | 476 kts | 290° |
| 2026-05-07 16:32 | 52.34457 | -6.11912 | 39982 ft | 476 kts | 290° |
| 2026-05-07 16:33 | 52.36784 | -6.21964 | 39981 ft | 476 kts | 290° |
| 2026-05-07 16:33 | 52.39121 | -6.32101 | 39975 ft | 476 kts | 290° |
| 2026-05-07 16:34 | 52.41448 | -6.42244 | 39973 ft | 476 kts | 289° |
| 2026-05-07 16:34 | 52.43762 | -6.52387 | 39974 ft | 475 kts | 289° |
| 2026-05-07 16:35 | 52.46067 | -6.62536 | 39970 ft | 475 kts | 289° |
| 2026-05-07 16:35 | 52.47988 | -6.71031 | 39968 ft | 474 kts | 289° |
| 2026-05-07 16:36 | 52.50273 | -6.81180 | 39962 ft | 474 kts | 289° |
| 2026-05-07 16:36 | 52.52548 | -6.91334 | 39963 ft | 474 kts | 289° |
| 2026-05-07 16:37 | 52.54814 | -7.01498 | 39960 ft | 474 kts | 289° |
| 2026-05-07 16:37 | 52.57073 | -7.11681 | 39955 ft | 474 kts | 289° |
| 2026-05-07 16:38 | 52.59325 | -7.21883 | 39951 ft | 474 kts | 289° |
| 2026-05-07 16:38 | 52.61567 | -7.32087 | 39945 ft | 474 kts | 289° |
| 2026-05-07 16:39 | 52.63787 | -7.42240 | 39944 ft | 475 kts | 289° |
| 2026-05-07 16:39 | 52.66012 | -7.52468 | 39943 ft | 474 kts | 289° |
| 2026-05-07 16:40 | 52.68226 | -7.62700 | 39939 ft | 474 kts | 289° |
| 2026-05-07 16:40 | 52.70431 | -7.72938 | 39939 ft | 474 kts | 289° |
| 2026-05-07 16:41 | 52.72626 | -7.83183 | 39935 ft | 474 kts | 289° |
| 2026-05-07 16:41 | 52.74813 | -7.93440 | 39935 ft | 473 kts | 289° |
| 2026-05-07 16:42 | 52.76988 | -8.03689 | 39933 ft | 473 kts | 289° |
| 2026-05-07 16:42 | 52.79151 | -8.13938 | 39939 ft | 473 kts | 289° |
| 2026-05-07 16:43 | 52.81304 | -8.24191 | 39937 ft | 472 kts | 289° |
| 2026-05-07 16:43 | 52.83446 | -8.34445 | 39936 ft | 472 kts | 289° |
| 2026-05-07 16:44 | 52.85578 | -8.44700 | 39940 ft | 471 kts | 289° |
| 2026-05-07 16:44 | 52.87697 | -8.54948 | 39934 ft | 471 kts | 289° |
| 2026-05-07 16:45 | 52.89806 | -8.65200 | 39939 ft | 470 kts | 289° |
| 2026-05-07 16:45 | 52.91905 | -8.75455 | 39939 ft | 470 kts | 288° |
| 2026-05-07 16:46 | 52.93993 | -8.85711 | 39935 ft | 470 kts | 288° |
| 2026-05-07 16:46 | 52.96073 | -8.95977 | 39937 ft | 469 kts | 288° |
| 2026-05-07 16:47 | 52.98141 | -9.06242 | 39938 ft | 469 kts | 288° |
| 2026-05-07 16:47 | 53.00187 | -9.16448 | 39938 ft | 469 kts | 288° |
| 2026-05-07 16:48 | 53.02234 | -9.26719 | 39938 ft | 469 kts | 288° |
| 2026-05-07 16:48 | 53.04274 | -9.37002 | 39939 ft | 469 kts | 288° |
| 2026-05-07 16:49 | 53.06303 | -9.47286 | 39937 ft | 468 kts | 288° |
| 2026-05-07 16:49 | 53.08323 | -9.57579 | 39940 ft | 468 kts | 288° |
| 2026-05-07 16:50 | 53.10334 | -9.67877 | 39935 ft | 468 kts | 288° |
| 2026-05-07 16:50 | 53.12332 | -9.78168 | 39936 ft | 467 kts | 288° |
| 2026-05-07 16:51 | 53.14321 | -9.88470 | 39935 ft | 467 kts | 288° |